sensor_id;sensor_type;location;lat;lon;timestamp;pressure;altitude;pressure_sealevel;temperature;humidity
63715;BME280;49858;48.956;9.076;2023-01-26T00:02:27;99346.81;;;2.91;100.00
63715;BME280;49858;48.956;9.076;2023-01-26T00:04:54;99338.44;;;3.30;100.00
63715;BME280;49858;48.956;9.076;2023-01-26T00:07:22;99336.50;;;3.12;100.00
63715;BME280;49858;48.956;9.076;2023-01-26T00:09:50;99331.69;;;3.46;100.00
63715;BME280;49858;48.956;9.076;2023-01-26T00:12:20;99328.38;;;3.68;100.00
63715;BME280;49858;48.956;9.076;2023-01-26T00:14:49;99331.94;;;3.07;100.00
63715;BME280;49858;48.956;9.076;2023-01-26T00:17:18;99309.09;;;3.65;100.00
63715;BME280;49858;48.956;9.076;2023-01-26T00:19:53;99312.84;;;2.69;100.00
63715;BME280;49858;48.956;9.076;2023-01-26T00:22:26;99309.69;;;3.43;100.00
63715;BME280;49858;48.956;9.076;2023-01-26T00:24:57;99307.94;;;3.52;100.00
63715;BME280;49858;48.956;9.076;2023-01-26T00:27:34;99307.81;;;3.76;100.00
63715;BME280;49858;48.956;9.076;2023-01-26T00:30:07;99301.22;;;4.15;100.00
63715;BME280;49858;48.956;9.076;2023-01-26T00:32:36;99304.56;;;4.25;100.00
63715;BME280;49858;48.956;9.076;2023-01-26T00:35:05;99301.56;;;4.41;100.00
63715;BME280;49858;48.956;9.076;2023-01-26T00:37:35;99292.72;;;3.51;100.00
63715;BME280;49858;48.956;9.076;2023-01-26T00:40:03;99289.81;;;4.13;100.00
63715;BME280;49858;48.956;9.076;2023-01-26T00:42:31;99282.88;;;3.88;100.00
63715;BME280;49858;48.956;9.076;2023-01-26T00:44:59;99280.44;;;4.05;100.00
63715;BME280;49858;48.956;9.076;2023-01-26T00:47:28;99285.59;;;4.20;100.00
63715;BME280;49858;48.956;9.076;2023-01-26T00:49:56;99294.63;;;4.62;100.00
63715;BME280;49858;48.956;9.076;2023-01-26T00:52:27;99282.78;;;4.25;100.00
63715;BME280;49858;48.956;9.076;2023-01-26T00:54:58;99286.00;;;4.41;100.00
63715;BME280;49858;48.956;9.076;2023-01-26T00:57:29;99276.91;;;3.85;100.00
63715;BME280;49858;48.956;9.076;2023-01-26T00:59:56;99280.56;;;3.62;100.00
63715;BME280;49858;48.956;9.076;2023-01-26T01:02:28;99280.94;;;3.74;100.00
63715;BME280;49858;48.956;9.076;2023-01-26T01:04:59;99274.13;;;3.20;100.00
63715;BME280;49858;48.956;9.076;2023-01-26T01:07:29;99277.28;;;3.46;100.00
63715;BME280;49858;48.956;9.076;2023-01-26T01:09:58;99276.16;;;3.10;100.00
63715;BME280;49858;48.956;9.076;2023-01-26T01:12:26;99283.47;;;3.84;100.00
63715;BME280;49858;48.956;9.076;2023-01-26T01:14:54;99277.91;;;4.08;100.00
63715;BME280;49858;48.956;9.076;2023-01-26T01:17:22;99279.78;;;3.43;100.00
63715;BME280;49858;48.956;9.076;2023-01-26T01:19:51;99280.81;;;3.47;100.00
63715;BME280;49858;48.956;9.076;2023-01-26T01:22:20;99277.50;;;3.12;100.00
63715;BME280;49858;48.956;9.076;2023-01-26T01:24:48;99273.13;;;3.87;100.00
63715;BME280;49858;48.956;9.076;2023-01-26T01:27:15;99278.84;;;4.31;100.00
63715;BME280;49858;48.956;9.076;2023-01-26T01:29:44;99264.94;;;4.60;100.00
63715;BME280;49858;48.956;9.076;2023-01-26T01:32:11;99262.81;;;4.44;100.00
63715;BME280;49858;48.956;9.076;2023-01-26T01:34:41;99263.84;;;4.34;100.00
63715;BME280;49858;48.956;9.076;2023-01-26T01:37:10;99257.78;;;4.78;100.00
63715;BME280;49858;48.956;9.076;2023-01-26T01:39:38;99268.38;;;4.39;100.00
63715;BME280;49858;48.956;9.076;2023-01-26T01:42:05;99262.00;;;4.84;100.00
63715;BME280;49858;48.956;9.076;2023-01-26T01:44:34;99252.69;;;5.13;100.00
63715;BME280;49858;48.956;9.076;2023-01-26T01:47:03;99261.69;;;4.17;100.00
63715;BME280;49858;48.956;9.076;2023-01-26T01:49:35;99260.47;;;4.09;100.00
63715;BME280;49858;48.956;9.076;2023-01-26T01:52:08;99257.00;;;4.04;100.00
63715;BME280;49858;48.956;9.076;2023-01-26T01:54:40;99246.03;;;2.68;100.00
63715;BME280;49858;48.956;9.076;2023-01-26T01:57:15;99250.13;;;3.60;100.00
63715;BME280;49858;48.956;9.076;2023-01-26T01:59:48;99243.41;;;3.01;100.00
63715;BME280;49858;48.956;9.076;2023-01-26T02:02:18;99252.22;;;2.93;100.00
63715;BME280;49858;48.956;9.076;2023-01-26T02:04:46;99253.53;;;2.95;100.00
63715;BME280;49858;48.956;9.076;2023-01-26T02:07:14;99249.50;;;2.26;100.00
63715;BME280;49858;48.956;9.076;2023-01-26T02:09:44;99253.91;;;2.46;100.00
63715;BME280;49858;48.956;9.076;2023-01-26T02:12:31;99249.50;;;2.26;100.00
63715;BME280;49858;48.956;9.076;2023-01-26T02:15:00;99243.09;;;1.88;100.00
63715;BME280;49858;48.956;9.076;2023-01-26T02:17:29;99240.53;;;2.25;100.00
63715;BME280;49858;48.956;9.076;2023-01-26T02:20:02;99235.63;;;2.94;100.00
63715;BME280;49858;48.956;9.076;2023-01-26T02:22:39;99236.16;;;2.29;100.00
63715;BME280;49858;48.956;9.076;2023-01-26T02:25:19;99237.25;;;2.52;100.00
63715;BME280;49858;48.956;9.076;2023-01-26T02:27:52;99233.44;;;2.72;100.00
63715;BME280;49858;48.956;9.076;2023-01-26T02:30:22;99229.88;;;3.15;100.00
63715;BME280;49858;48.956;9.076;2023-01-26T02:32:49;99227.84;;;2.88;100.00
63715;BME280;49858;48.956;9.076;2023-01-26T02:35:17;99228.44;;;3.03;100.00
63715;BME280;49858;48.956;9.076;2023-01-26T02:37:45;99232.28;;;3.54;100.00
63715;BME280;49858;48.956;9.076;2023-01-26T02:40:20;99221.13;;;3.37;100.00
63715;BME280;49858;48.956;9.076;2023-01-26T02:42:52;99222.84;;;3.14;100.00
63715;BME280;49858;48.956;9.076;2023-01-26T02:45:20;99222.88;;;3.46;100.00
63715;BME280;49858;48.956;9.076;2023-01-26T02:47:48;99218.34;;;3.42;100.00
63715;BME280;49858;48.956;9.076;2023-01-26T02:50:16;99227.34;;;3.56;100.00
63715;BME280;49858;48.956;9.076;2023-01-26T02:52:43;99227.19;;;3.66;100.00
63715;BME280;49858;48.956;9.076;2023-01-26T02:55:19;99224.97;;;4.01;100.00
63715;BME280;49858;48.956;9.076;2023-01-26T02:57:57;99221.47;;;4.14;100.00
63715;BME280;49858;48.956;9.076;2023-01-26T03:00:29;99218.16;;;3.52;100.00
63715;BME280;49858;48.956;9.076;2023-01-26T03:02:58;99214.91;;;3.69;100.00
63715;BME280;49858;48.956;9.076;2023-01-26T03:05:29;99213.00;;;2.99;100.00
63715;BME280;49858;48.956;9.076;2023-01-26T03:07:57;99206.41;;;2.43;100.00
63715;BME280;49858;48.956;9.076;2023-01-26T03:10:30;99202.53;;;2.25;100.00
63715;BME280;49858;48.956;9.076;2023-01-26T03:12:59;99201.16;;;2.71;100.00
63715;BME280;49858;48.956;9.076;2023-01-26T03:15:27;99201.41;;;3.12;100.00
63715;BME280;49858;48.956;9.076;2023-01-26T03:18:15;99184.63;;;2.86;100.00
63715;BME280;49858;48.956;9.076;2023-01-26T03:21:02;99194.31;;;2.07;100.00
63715;BME280;49858;48.956;9.076;2023-01-26T03:23:48;99204.44;;;2.01;100.00
63715;BME280;49858;48.956;9.076;2023-01-26T03:26:33;99189.34;;;1.66;100.00
63715;BME280;49858;48.956;9.076;2023-01-26T03:29:20;99185.59;;;1.86;100.00
63715;BME280;49858;48.956;9.076;2023-01-26T03:31:50;99193.00;;;1.80;100.00
63715;BME280;49858;48.956;9.076;2023-01-26T03:34:17;99187.75;;;2.37;100.00
63715;BME280;49858;48.956;9.076;2023-01-26T03:36:46;99182.78;;;2.63;100.00
63715;BME280;49858;48.956;9.076;2023-01-26T03:39:16;99180.19;;;2.34;100.00
63715;BME280;49858;48.956;9.076;2023-01-26T03:41:59;99182.03;;;2.14;100.00
63715;BME280;49858;48.956;9.076;2023-01-26T03:44:46;99180.81;;;2.25;100.00
63715;BME280;49858;48.956;9.076;2023-01-26T03:47:31;99178.28;;;2.10;100.00
63715;BME280;49858;48.956;9.076;2023-01-26T03:50:17;99173.16;;;2.09;100.00
63715;BME280;49858;48.956;9.076;2023-01-26T03:53:12;99164.16;;;1.89;100.00
63715;BME280;49858;48.956;9.076;2023-01-26T03:55:57;99168.59;;;1.51;100.00
63715;BME280;49858;48.956;9.076;2023-01-26T03:58:45;99171.81;;;1.53;100.00
63715;BME280;49858;48.956;9.076;2023-01-26T04:01:15;99172.53;;;1.88;100.00
63715;BME280;49858;48.956;9.076;2023-01-26T04:03:51;99172.78;;;1.91;100.00
63715;BME280;49858;48.956;9.076;2023-01-26T04:06:38;99167.47;;;2.05;100.00
63715;BME280;49858;48.956;9.076;2023-01-26T04:09:23;99169.44;;;2.23;100.00
63715;BME280;49858;48.956;9.076;2023-01-26T04:11:51;99168.41;;;1.95;100.00
63715;BME280;49858;48.956;9.076;2023-01-26T04:14:19;99170.63;;;1.93;100.00
63715;BME280;49858;48.956;9.076;2023-01-26T04:17:21;99171.88;;;2.25;100.00
63715;BME280;49858;48.956;9.076;2023-01-26T04:20:07;99176.16;;;2.07;100.00
63715;BME280;49858;48.956;9.076;2023-01-26T04:22:54;99175.56;;;2.10;100.00
63715;BME280;49858;48.956;9.076;2023-01-26T04:25:22;99175.97;;;1.69;100.00
63715;BME280;49858;48.956;9.076;2023-01-26T04:27:50;99174.47;;;1.87;100.00
63715;BME280;49858;48.956;9.076;2023-01-26T04:30:18;99168.66;;;1.99;100.00
63715;BME280;49858;48.956;9.076;2023-01-26T04:32:49;99171.22;;;1.27;100.00
63715;BME280;49858;48.956;9.076;2023-01-26T04:35:18;99175.53;;;1.62;100.00
63715;BME280;49858;48.956;9.076;2023-01-26T04:37:46;99167.59;;;1.95;100.00
63715;BME280;49858;48.956;9.076;2023-01-26T04:40:15;99170.72;;;1.54;100.00
63715;BME280;49858;48.956;9.076;2023-01-26T04:42:43;99172.28;;;2.13;100.00
63715;BME280;49858;48.956;9.076;2023-01-26T04:45:11;99170.50;;;2.27;100.00
63715;BME280;49858;48.956;9.076;2023-01-26T04:47:40;99175.22;;;1.93;100.00
63715;BME280;49858;48.956;9.076;2023-01-26T04:50:10;99171.00;;;1.82;100.00
63715;BME280;49858;48.956;9.076;2023-01-26T04:52:38;99169.94;;;2.25;100.00
63715;BME280;49858;48.956;9.076;2023-01-26T04:55:07;99163.41;;;1.78;100.00
63715;BME280;49858;48.956;9.076;2023-01-26T04:57:36;99159.53;;;1.90;100.00
63715;BME280;49858;48.956;9.076;2023-01-26T05:00:06;99157.25;;;2.21;100.00
63715;BME280;49858;48.956;9.076;2023-01-26T05:02:36;99164.03;;;2.23;100.00
63715;BME280;49858;48.956;9.076;2023-01-26T05:05:07;99158.72;;;1.89;100.00
63715;BME280;49858;48.956;9.076;2023-01-26T05:07:37;99160.94;;;2.06;100.00
63715;BME280;49858;48.956;9.076;2023-01-26T05:10:05;99166.03;;;1.65;100.00
63715;BME280;49858;48.956;9.076;2023-01-26T05:12:43;99155.41;;;1.92;100.00
63715;BME280;49858;48.956;9.076;2023-01-26T05:15:29;99160.38;;;2.09;100.00
63715;BME280;49858;48.956;9.076;2023-01-26T05:18:22;99157.31;;;1.92;100.00
63715;BME280;49858;48.956;9.076;2023-01-26T05:21:01;99170.34;;;1.66;100.00
63715;BME280;49858;48.956;9.076;2023-01-26T05:23:39;99161.31;;;1.75;100.00
63715;BME280;49858;48.956;9.076;2023-01-26T05:26:20;99167.22;;;1.77;100.00
63715;BME280;49858;48.956;9.076;2023-01-26T05:28:54;99169.78;;;1.93;100.00
63715;BME280;49858;48.956;9.076;2023-01-26T05:31:22;99167.25;;;2.01;100.00
63715;BME280;49858;48.956;9.076;2023-01-26T05:33:51;99161.47;;;1.26;100.00
63715;BME280;49858;48.956;9.076;2023-01-26T05:36:21;99161.47;;;1.60;100.00
63715;BME280;49858;48.956;9.076;2023-01-26T05:38:51;99166.88;;;1.26;100.00
63715;BME280;49858;48.956;9.076;2023-01-26T05:41:22;99165.47;;;1.63;100.00
63715;BME280;49858;48.956;9.076;2023-01-26T05:44:04;99175.81;;;2.14;100.00
63715;BME280;49858;48.956;9.076;2023-01-26T05:46:39;99161.66;;;2.17;100.00
63715;BME280;49858;48.956;9.076;2023-01-26T05:49:07;99157.66;;;1.85;100.00
63715;BME280;49858;48.956;9.076;2023-01-26T05:51:35;99171.66;;;2.21;100.00
63715;BME280;49858;48.956;9.076;2023-01-26T05:54:05;99165.13;;;1.69;100.00
63715;BME280;49858;48.956;9.076;2023-01-26T05:56:33;99161.56;;;2.03;100.00
63715;BME280;49858;48.956;9.076;2023-01-26T05:59:03;99159.00;;;2.12;100.00
63715;BME280;49858;48.956;9.076;2023-01-26T06:01:32;99162.50;;;2.36;100.00
63715;BME280;49858;48.956;9.076;2023-01-26T06:04:04;99158.88;;;2.22;100.00
63715;BME280;49858;48.956;9.076;2023-01-26T06:06:52;99156.69;;;2.24;100.00
63715;BME280;49858;48.956;9.076;2023-01-26T06:09:27;99153.50;;;2.41;100.00
63715;BME280;49858;48.956;9.076;2023-01-26T06:12:13;99157.56;;;1.95;100.00
63715;BME280;49858;48.956;9.076;2023-01-26T06:14:57;99157.50;;;1.76;100.00
63715;BME280;49858;48.956;9.076;2023-01-26T06:17:33;99155.69;;;1.67;100.00
63715;BME280;49858;48.956;9.076;2023-01-26T06:20:04;99161.56;;;1.74;100.00
63715;BME280;49858;48.956;9.076;2023-01-26T06:22:33;99158.47;;;2.34;100.00
63715;BME280;49858;48.956;9.076;2023-01-26T06:25:02;99150.91;;;2.07;100.00
63715;BME280;49858;48.956;9.076;2023-01-26T06:27:30;99153.84;;;2.10;100.00
63715;BME280;49858;48.956;9.076;2023-01-26T06:30:03;99150.75;;;1.98;100.00
63715;BME280;49858;48.956;9.076;2023-01-26T06:32:32;99157.72;;;2.28;100.00
63715;BME280;49858;48.956;9.076;2023-01-26T06:35:00;99153.28;;;2.13;100.00
63715;BME280;49858;48.956;9.076;2023-01-26T06:37:28;99160.38;;;1.85;100.00
63715;BME280;49858;48.956;9.076;2023-01-26T06:39:56;99163.22;;;2.85;100.00
63715;BME280;49858;48.956;9.076;2023-01-26T06:42:25;99164.06;;;2.61;100.00
63715;BME280;49858;48.956;9.076;2023-01-26T06:44:53;99162.59;;;2.31;100.00
63715;BME280;49858;48.956;9.076;2023-01-26T06:47:22;99164.47;;;2.73;100.00
63715;BME280;49858;48.956;9.076;2023-01-26T06:49:50;99161.78;;;3.25;100.00
63715;BME280;49858;48.956;9.076;2023-01-26T06:52:24;99168.47;;;3.14;100.00
63715;BME280;49858;48.956;9.076;2023-01-26T06:54:58;99162.63;;;2.88;100.00
63715;BME280;49858;48.956;9.076;2023-01-26T06:58:06;99162.97;;;2.62;100.00
63715;BME280;49858;48.956;9.076;2023-01-26T07:00:55;99165.53;;;3.10;100.00
63715;BME280;49858;48.956;9.076;2023-01-26T07:03:27;99162.97;;;2.62;100.00
63715;BME280;49858;48.956;9.076;2023-01-26T07:05:55;99167.25;;;2.68;100.00
63715;BME280;49858;48.956;9.076;2023-01-26T07:08:23;99167.19;;;2.73;100.00
63715;BME280;49858;48.956;9.076;2023-01-26T07:10:50;99176.13;;;2.55;100.00
63715;BME280;49858;48.956;9.076;2023-01-26T07:13:20;99171.66;;;2.83;100.00
63715;BME280;49858;48.956;9.076;2023-01-26T07:15:47;99172.94;;;2.48;100.00
63715;BME280;49858;48.956;9.076;2023-01-26T07:18:15;99177.06;;;2.45;100.00
63715;BME280;49858;48.956;9.076;2023-01-26T07:20:43;99171.28;;;2.71;100.00
63715;BME280;49858;48.956;9.076;2023-01-26T07:23:11;99170.88;;;2.59;100.00
63715;BME280;49858;48.956;9.076;2023-01-26T07:25:42;99174.56;;;3.24;100.00
63715;BME280;49858;48.956;9.076;2023-01-26T07:28:10;99175.84;;;2.75;100.00
63715;BME280;49858;48.956;9.076;2023-01-26T07:30:39;99177.38;;;2.81;100.00
63715;BME280;49858;48.956;9.076;2023-01-26T07:33:07;99179.19;;;3.24;100.00
63715;BME280;49858;48.956;9.076;2023-01-26T07:35:35;99188.00;;;3.67;100.00
63715;BME280;49858;48.956;9.076;2023-01-26T07:38:03;99182.66;;;3.76;100.00
63715;BME280;49858;48.956;9.076;2023-01-26T07:40:30;99191.63;;;3.63;100.00
63715;BME280;49858;48.956;9.076;2023-01-26T07:42:59;99190.81;;;3.29;100.00
63715;BME280;49858;48.956;9.076;2023-01-26T07:45:49;99181.81;;;2.11;100.00
63715;BME280;49858;48.956;9.076;2023-01-26T07:48:18;99182.25;;;2.42;100.00
63715;BME280;49858;48.956;9.076;2023-01-26T07:50:46;99174.97;;;2.80;100.00
63715;BME280;49858;48.956;9.076;2023-01-26T07:53:15;99176.97;;;1.78;100.00
63715;BME280;49858;48.956;9.076;2023-01-26T07:55:45;99186.94;;;0.91;100.00
63715;BME280;49858;48.956;9.076;2023-01-26T07:58:15;99178.53;;;1.61;100.00
63715;BME280;49858;48.956;9.076;2023-01-26T08:00:44;99183.34;;;1.35;100.00
63715;BME280;49858;48.956;9.076;2023-01-26T08:03:14;99188.56;;;2.13;100.00
63715;BME280;49858;48.956;9.076;2023-01-26T08:05:42;99187.66;;;1.70;100.00
63715;BME280;49858;48.956;9.076;2023-01-26T08:08:10;99189.25;;;1.08;100.00
63715;BME280;49858;48.956;9.076;2023-01-26T08:10:38;99179.91;;;1.58;100.00
63715;BME280;49858;48.956;9.076;2023-01-26T08:13:05;99188.22;;;2.20;100.00
63715;BME280;49858;48.956;9.076;2023-01-26T08:15:33;99184.66;;;2.43;100.00
63715;BME280;49858;48.956;9.076;2023-01-26T08:18:01;99190.19;;;2.57;100.00
63715;BME280;49858;48.956;9.076;2023-01-26T08:20:31;99189.47;;;2.51;100.00
63715;BME280;49858;48.956;9.076;2023-01-26T08:22:59;99191.66;;;2.25;100.00
63715;BME280;49858;48.956;9.076;2023-01-26T08:25:27;99182.50;;;2.21;100.00
63715;BME280;49858;48.956;9.076;2023-01-26T08:27:55;99186.53;;;2.67;100.00
63715;BME280;49858;48.956;9.076;2023-01-26T08:30:22;99173.78;;;1.13;100.00
63715;BME280;49858;48.956;9.076;2023-01-26T08:32:50;99174.38;;;1.68;100.00
63715;BME280;49858;48.956;9.076;2023-01-26T08:35:18;99181.84;;;1.82;100.00
63715;BME280;49858;48.956;9.076;2023-01-26T08:37:47;99175.31;;;1.83;100.00
63715;BME280;49858;48.956;9.076;2023-01-26T08:40:15;99173.69;;;1.23;100.00
63715;BME280;49858;48.956;9.076;2023-01-26T08:42:43;99168.94;;;2.21;100.00
63715;BME280;49858;48.956;9.076;2023-01-26T08:45:11;99180.03;;;2.44;100.00
63715;BME280;49858;48.956;9.076;2023-01-26T08:47:39;99170.56;;;2.65;100.00
63715;BME280;49858;48.956;9.076;2023-01-26T08:50:07;99167.75;;;2.70;100.00
63715;BME280;49858;48.956;9.076;2023-01-26T08:52:35;99165.47;;;2.77;100.00
63715;BME280;49858;48.956;9.076;2023-01-26T08:55:08;99173.03;;;2.80;100.00
63715;BME280;49858;48.956;9.076;2023-01-26T08:57:37;99165.84;;;2.52;100.00
63715;BME280;49858;48.956;9.076;2023-01-26T09:00:06;99165.47;;;2.77;100.00
63715;BME280;49858;48.956;9.076;2023-01-26T09:02:41;99169.00;;;2.59;100.00
63715;BME280;49858;48.956;9.076;2023-01-26T09:05:09;99179.00;;;2.40;100.00
63715;BME280;49858;48.956;9.076;2023-01-26T09:07:36;99176.34;;;2.35;100.00
63715;BME280;49858;48.956;9.076;2023-01-26T09:10:10;99171.81;;;2.06;100.00
63715;BME280;49858;48.956;9.076;2023-01-26T09:12:41;99167.97;;;1.83;100.00
63715;BME280;49858;48.956;9.076;2023-01-26T09:15:10;99166.56;;;1.91;100.00
63715;BME280;49858;48.956;9.076;2023-01-26T09:17:39;99163.47;;;1.73;100.00
63715;BME280;49858;48.956;9.076;2023-01-26T09:20:10;99174.59;;;2.01;100.00
63715;BME280;49858;48.956;9.076;2023-01-26T09:22:40;99177.97;;;1.88;100.00
63715;BME280;49858;48.956;9.076;2023-01-26T09:25:10;99177.69;;;2.37;100.00
63715;BME280;49858;48.956;9.076;2023-01-26T09:27:38;99174.25;;;1.84;100.00
63715;BME280;49858;48.956;9.076;2023-01-26T09:30:08;99180.41;;;1.89;100.00
63715;BME280;49858;48.956;9.076;2023-01-26T09:32:38;99186.91;;;1.93;100.00
63715;BME280;49858;48.956;9.076;2023-01-26T09:35:09;99183.47;;;1.53;100.00
63715;BME280;49858;48.956;9.076;2023-01-26T09:37:42;99179.75;;;1.10;100.00
63715;BME280;49858;48.956;9.076;2023-01-26T09:40:16;99178.91;;;2.02;100.00
63715;BME280;49858;48.956;9.076;2023-01-26T09:43:11;99172.84;;;2.10;100.00
63715;BME280;49858;48.956;9.076;2023-01-26T09:45:52;99182.47;;;1.97;100.00
63715;BME280;49858;48.956;9.076;2023-01-26T09:48:31;99182.19;;;2.47;100.00
63715;BME280;49858;48.956;9.076;2023-01-26T09:51:10;99178.19;;;2.82;100.00
63715;BME280;49858;48.956;9.076;2023-01-26T09:53:44;99182.81;;;2.39;100.00
63715;BME280;49858;48.956;9.076;2023-01-26T09:56:18;99186.38;;;2.58;100.00
63715;BME280;49858;48.956;9.076;2023-01-26T09:58:50;99183.03;;;2.23;100.00
63715;BME280;49858;48.956;9.076;2023-01-26T10:01:25;99185.63;;;2.10;100.00
63715;BME280;49858;48.956;9.076;2023-01-26T10:04:00;99181.13;;;2.00;100.00
63715;BME280;49858;48.956;9.076;2023-01-26T10:06:30;99178.56;;;1.85;100.00
63715;BME280;49858;48.956;9.076;2023-01-26T10:09:10;99181.59;;;1.78;100.00
63715;BME280;49858;48.956;9.076;2023-01-26T10:11:45;99182.09;;;2.33;100.00
63715;BME280;49858;48.956;9.076;2023-01-26T10:14:32;99170.25;;;1.76;100.00
63715;BME280;49858;48.956;9.076;2023-01-26T10:17:04;99172.84;;;2.10;100.00
63715;BME280;49858;48.956;9.076;2023-01-26T10:19:36;99177.69;;;1.65;100.00
63715;BME280;49858;48.956;9.076;2023-01-26T10:22:12;99170.06;;;2.15;100.00
63715;BME280;49858;48.956;9.076;2023-01-26T10:24:44;99176.84;;;2.18;100.00
63715;BME280;49858;48.956;9.076;2023-01-26T10:27:15;99174.41;;;2.40;100.00
63715;BME280;49858;48.956;9.076;2023-01-26T10:29:44;99180.97;;;1.86;100.00
63715;BME280;49858;48.956;9.076;2023-01-26T10:32:12;99183.44;;;1.83;100.00
63715;BME280;49858;48.956;9.076;2023-01-26T10:34:41;99173.47;;;2.02;100.00
63715;BME280;49858;48.956;9.076;2023-01-26T10:37:18;99175.50;;;2.15;100.00
63715;BME280;49858;48.956;9.076;2023-01-26T10:39:59;99172.50;;;1.93;100.00
63715;BME280;49858;48.956;9.076;2023-01-26T10:42:30;99179.13;;;1.82;100.00
63715;BME280;49858;48.956;9.076;2023-01-26T10:45:00;99170.06;;;1.67;100.00
63715;BME280;49858;48.956;9.076;2023-01-26T10:47:29;99163.88;;;1.62;100.00
63715;BME280;49858;48.956;9.076;2023-01-26T10:50:17;99171.47;;;2.13;100.00
63715;BME280;49858;48.956;9.076;2023-01-26T10:52:57;99167.56;;;2.43;100.00
63715;BME280;49858;48.956;9.076;2023-01-26T10:55:26;99169.63;;;2.32;100.00
63715;BME280;49858;48.956;9.076;2023-01-26T10:57:56;99171.16;;;1.66;100.00
63715;BME280;49858;48.956;9.076;2023-01-26T11:00:27;99168.03;;;1.78;100.00
63715;BME280;49858;48.956;9.076;2023-01-26T11:03:04;99168.66;;;1.41;100.00
63715;BME280;49858;48.956;9.076;2023-01-26T11:05:33;99156.03;;;1.60;100.00
63715;BME280;49858;48.956;9.076;2023-01-26T11:08:01;99157.19;;;2.02;100.00
63715;BME280;49858;48.956;9.076;2023-01-26T11:10:33;99147.97;;;1.79;100.00
63715;BME280;49858;48.956;9.076;2023-01-26T11:13:11;99157.44;;;1.23;100.00
63715;BME280;49858;48.956;9.076;2023-01-26T11:15:40;99150.78;;;1.93;100.00
63715;BME280;49858;48.956;9.076;2023-01-26T11:18:18;99150.03;;;2.11;100.00
63715;BME280;49858;48.956;9.076;2023-01-26T11:20:56;99153.72;;;2.20;100.00
63715;BME280;49858;48.956;9.076;2023-01-26T11:23:47;99135.47;;;2.50;100.00
63715;BME280;49858;48.956;9.076;2023-01-26T11:29:37;99136.50;;;1.58;100.00
63715;BME280;49858;48.956;9.076;2023-01-26T11:32:14;99130.72;;;2.18;100.00
63715;BME280;49858;48.956;9.076;2023-01-26T11:34:50;99134.81;;;1.91;100.00
63715;BME280;49858;48.956;9.076;2023-01-26T11:37:35;99129.69;;;1.90;100.00
63715;BME280;49858;48.956;9.076;2023-01-26T11:40:27;99128.97;;;2.27;100.00
63715;BME280;49858;48.956;9.076;2023-01-26T11:43:08;99133.09;;;2.62;100.00
63715;BME280;49858;48.956;9.076;2023-01-26T11:45:57;99135.00;;;2.00;100.00
63715;BME280;49858;48.956;9.076;2023-01-26T11:48:38;99124.06;;;2.05;100.00
63715;BME280;49858;48.956;9.076;2023-01-26T11:51:19;99119.22;;;1.78;100.00
63715;BME280;49858;48.956;9.076;2023-01-26T11:54:01;99118.84;;;1.90;100.00
63715;BME280;49858;48.956;9.076;2023-01-26T11:56:43;99118.41;;;1.77;100.00
63715;BME280;49858;48.956;9.076;2023-01-26T11:59:20;99110.00;;;2.03;100.00
63715;BME280;49858;48.956;9.076;2023-01-26T12:01:58;99106.56;;;2.35;100.00
63715;BME280;49858;48.956;9.076;2023-01-26T12:04:30;99103.13;;;2.29;100.00
63715;BME280;49858;48.956;9.076;2023-01-26T12:07:04;99099.00;;;2.13;100.00
63715;BME280;49858;48.956;9.076;2023-01-26T12:09:38;99099.25;;;2.17;100.00
63715;BME280;49858;48.956;9.076;2023-01-26T12:12:12;99102.34;;;2.48;100.00
63715;BME280;49858;48.956;9.076;2023-01-26T12:14:45;99094.16;;;2.10;100.00
63715;BME280;49858;48.956;9.076;2023-01-26T12:17:26;99093.94;;;1.83;100.00
63715;BME280;49858;48.956;9.076;2023-01-26T12:20:03;99088.34;;;2.41;100.00
63715;BME280;49858;48.956;9.076;2023-01-26T12:22:36;99082.59;;;2.61;100.00
63715;BME280;49858;48.956;9.076;2023-01-26T12:25:16;99078.91;;;2.14;100.00
63715;BME280;49858;48.956;9.076;2023-01-26T12:27:48;99086.38;;;2.98;100.00
63715;BME280;49858;48.956;9.076;2023-01-26T12:30:25;99084.44;;;3.17;100.00
63715;BME280;49858;48.956;9.076;2023-01-26T12:32:56;99080.41;;;2.96;100.00
63715;BME280;49858;48.956;9.076;2023-01-26T12:35:35;99085.00;;;2.44;100.00
63715;BME280;49858;48.956;9.076;2023-01-26T12:38:12;99077.66;;;2.82;100.00
63715;BME280;49858;48.956;9.076;2023-01-26T12:40:51;99065.31;;;3.22;100.00
63715;BME280;49858;48.956;9.076;2023-01-26T12:43:36;99070.38;;;2.77;100.00
63715;BME280;49858;48.956;9.076;2023-01-26T12:46:09;99065.09;;;2.86;100.00
63715;BME280;49858;48.956;9.076;2023-01-26T12:48:43;99066.44;;;3.35;100.00
63715;BME280;49858;48.956;9.076;2023-01-26T12:51:18;99059.50;;;2.96;100.00
63715;BME280;49858;48.956;9.076;2023-01-26T12:53:51;99056.31;;;3.08;100.00
63715;BME280;49858;48.956;9.076;2023-01-26T12:56:23;99057.75;;;2.87;100.00
63715;BME280;49858;48.956;9.076;2023-01-26T12:58:52;99060.94;;;3.07;100.00
63715;BME280;49858;48.956;9.076;2023-01-26T13:01:24;99055.47;;;2.42;100.00
63715;BME280;49858;48.956;9.076;2023-01-26T13:03:57;99055.88;;;2.87;100.00
63715;BME280;49858;48.956;9.076;2023-01-26T13:06:26;99045.34;;;3.13;100.00
63715;BME280;49858;48.956;9.076;2023-01-26T13:09:02;99052.44;;;2.25;100.00
63715;BME280;49858;48.956;9.076;2023-01-26T13:11:49;99047.72;;;3.01;100.00
63715;BME280;49858;48.956;9.076;2023-01-26T13:17:51;99041.25;;;3.43;100.00
63715;BME280;49858;48.956;9.076;2023-01-26T13:20:42;99041.16;;;3.62;100.00
63715;BME280;49858;48.956;9.076;2023-01-26T13:26:42;99039.47;;;2.41;100.00
63715;BME280;49858;48.956;9.076;2023-01-26T13:29:51;99038.97;;;2.71;100.00
63715;BME280;49858;48.956;9.076;2023-01-26T13:32:53;99039.50;;;3.20;100.00
63715;BME280;49858;48.956;9.076;2023-01-26T13:35:28;99040.78;;;3.55;100.00
63715;BME280;49858;48.956;9.076;2023-01-26T13:38:05;99040.56;;;3.38;100.00
63715;BME280;49858;48.956;9.076;2023-01-26T13:40:41;99039.38;;;3.44;100.00
63715;BME280;49858;48.956;9.076;2023-01-26T13:43:14;99037.47;;;3.44;100.00